sensor_id;sensor_type;location;lat;lon;timestamp;P1;durP1;ratioP1;P2;durP2;ratioP2
71383;SDS011;67558;52.166;5.004;2023-02-05T00:00:13;16.95;;;9.70;;
71383;SDS011;67558;52.166;5.004;2023-02-05T00:02:39;17.92;;;10.57;;
71383;SDS011;67558;52.166;5.004;2023-02-05T00:05:05;28.27;;;10.05;;
71383;SDS011;67558;52.166;5.004;2023-02-05T00:07:30;21.42;;;10.23;;
71383;SDS011;67558;52.166;5.004;2023-02-05T00:09:56;15.43;;;9.20;;
71383;SDS011;67558;52.166;5.004;2023-02-05T00:12:21;19.17;;;10.20;;
71383;SDS011;67558;52.166;5.004;2023-02-05T00:14:46;16.58;;;9.35;;
71383;SDS011;67558;52.166;5.004;2023-02-05T00:17:11;19.05;;;10.27;;
71383;SDS011;67558;52.166;5.004;2023-02-05T00:19:37;19.13;;;8.60;;
71383;SDS011;67558;52.166;5.004;2023-02-05T00:22:02;19.45;;;10.00;;
71383;SDS011;67558;52.166;5.004;2023-02-05T00:24:27;25.05;;;11.48;;
71383;SDS011;67558;52.166;5.004;2023-02-05T00:26:53;20.33;;;11.48;;
71383;SDS011;67558;52.166;5.004;2023-02-05T00:29:18;22.35;;;11.32;;
71383;SDS011;67558;52.166;5.004;2023-02-05T00:31:43;19.52;;;9.55;;
71383;SDS011;67558;52.166;5.004;2023-02-05T00:34:09;24.92;;;11.40;;
71383;SDS011;67558;52.166;5.004;2023-02-05T00:36:34;21.23;;;9.55;;
71383;SDS011;67558;52.166;5.004;2023-02-05T00:39:00;18.38;;;9.98;;
71383;SDS011;67558;52.166;5.004;2023-02-05T00:41:25;18.88;;;10.25;;
71383;SDS011;67558;52.166;5.004;2023-02-05T00:43:50;20.70;;;10.55;;
71383;SDS011;67558;52.166;5.004;2023-02-05T00:46:16;16.98;;;9.25;;
71383;SDS011;67558;52.166;5.004;2023-02-05T00:48:41;19.90;;;9.57;;
71383;SDS011;67558;52.166;5.004;2023-02-05T00:51:08;19.83;;;10.63;;
71383;SDS011;67558;52.166;5.004;2023-02-05T00:53:33;17.48;;;9.13;;
71383;SDS011;67558;52.166;5.004;2023-02-05T00:55:59;22.55;;;11.10;;
71383;SDS011;67558;52.166;5.004;2023-02-05T00:58:24;22.20;;;10.65;;
71383;SDS011;67558;52.166;5.004;2023-02-05T01:00:49;19.50;;;8.98;;
71383;SDS011;67558;52.166;5.004;2023-02-05T01:03:15;15.35;;;9.27;;
71383;SDS011;67558;52.166;5.004;2023-02-05T01:05:42;20.38;;;10.60;;
71383;SDS011;67558;52.166;5.004;2023-02-05T01:08:07;20.25;;;9.43;;
71383;SDS011;67558;52.166;5.004;2023-02-05T01:10:35;18.65;;;8.23;;
71383;SDS011;67558;52.166;5.004;2023-02-05T01:13:01;22.20;;;10.80;;
71383;SDS011;67558;52.166;5.004;2023-02-05T01:15:27;16.63;;;9.23;;
71383;SDS011;67558;52.166;5.004;2023-02-05T01:17:53;21.13;;;9.93;;
71383;SDS011;67558;52.166;5.004;2023-02-05T01:20:18;21.70;;;9.43;;
71383;SDS011;67558;52.166;5.004;2023-02-05T01:22:45;15.90;;;8.95;;
71383;SDS011;67558;52.166;5.004;2023-02-05T01:25:11;21.40;;;9.40;;
71383;SDS011;67558;52.166;5.004;2023-02-05T01:27:36;20.55;;;9.48;;
71383;SDS011;67558;52.166;5.004;2023-02-05T01:30:03;20.08;;;8.75;;
71383;SDS011;67558;52.166;5.004;2023-02-05T01:32:29;25.52;;;9.35;;
71383;SDS011;67558;52.166;5.004;2023-02-05T01:34:54;22.25;;;9.18;;
71383;SDS011;67558;52.166;5.004;2023-02-05T01:37:20;19.50;;;9.00;;
71383;SDS011;67558;52.166;5.004;2023-02-05T01:39:45;12.57;;;7.00;;
71383;SDS011;67558;52.166;5.004;2023-02-05T01:42:20;15.68;;;7.72;;
71383;SDS011;67558;52.166;5.004;2023-02-05T01:47:48;19.42;;;8.60;;
71383;SDS011;67558;52.166;5.004;2023-02-05T01:50:15;17.10;;;8.75;;
71383;SDS011;67558;52.166;5.004;2023-02-05T01:52:43;15.50;;;6.03;;
71383;SDS011;67558;52.166;5.004;2023-02-05T01:55:09;14.95;;;7.68;;
71383;SDS011;67558;52.166;5.004;2023-02-05T01:57:36;12.52;;;6.78;;
71383;SDS011;67558;52.166;5.004;2023-02-05T02:00:03;14.57;;;6.80;;
71383;SDS011;67558;52.166;5.004;2023-02-05T02:02:30;21.65;;;7.38;;
71383;SDS011;67558;52.166;5.004;2023-02-05T02:04:57;18.13;;;8.85;;
71383;SDS011;67558;52.166;5.004;2023-02-05T02:07:26;16.42;;;7.22;;
71383;SDS011;67558;52.166;5.004;2023-02-05T02:09:52;16.85;;;7.50;;
71383;SDS011;67558;52.166;5.004;2023-02-05T02:12:20;14.15;;;7.32;;
71383;SDS011;67558;52.166;5.004;2023-02-05T02:14:49;14.00;;;6.78;;
71383;SDS011;67558;52.166;5.004;2023-02-05T02:17:18;14.68;;;7.55;;
71383;SDS011;67558;52.166;5.004;2023-02-05T02:22:28;16.55;;;7.28;;
71383;SDS011;67558;52.166;5.004;2023-02-05T02:28:09;10.93;;;6.47;;
71383;SDS011;67558;52.166;5.004;2023-02-05T02:30:42;12.68;;;5.97;;
71383;SDS011;67558;52.166;5.004;2023-02-05T02:33:20;11.95;;;6.05;;
71383;SDS011;67558;52.166;5.004;2023-02-05T02:36:17;10.27;;;5.53;;
71383;SDS011;67558;52.166;5.004;2023-02-05T02:38:53;8.95;;;5.05;;
71383;SDS011;67558;52.166;5.004;2023-02-05T02:41:29;9.02;;;4.80;;
71383;SDS011;67558;52.166;5.004;2023-02-05T02:44:13;11.38;;;4.30;;
71383;SDS011;67558;52.166;5.004;2023-02-05T02:46:51;9.65;;;4.85;;
71383;SDS011;67558;52.166;5.004;2023-02-05T02:49:22;10.02;;;5.15;;
71383;SDS011;67558;52.166;5.004;2023-02-05T02:51:54;6.70;;;4.72;;
71383;SDS011;67558;52.166;5.004;2023-02-05T02:54:23;7.88;;;4.63;;
71383;SDS011;67558;52.166;5.004;2023-02-05T02:56:50;8.88;;;4.32;;
71383;SDS011;67558;52.166;5.004;2023-02-05T02:59:17;12.32;;;4.65;;
71383;SDS011;67558;52.166;5.004;2023-02-05T03:01:56;7.50;;;4.40;;
71383;SDS011;67558;52.166;5.004;2023-02-05T03:04:34;6.78;;;3.70;;
71383;SDS011;67558;52.166;5.004;2023-02-05T03:07:04;6.05;;;3.88;;
71383;SDS011;67558;52.166;5.004;2023-02-05T03:09:38;7.80;;;3.95;;
71383;SDS011;67558;52.166;5.004;2023-02-05T03:12:14;6.90;;;3.88;;
71383;SDS011;67558;52.166;5.004;2023-02-05T03:14:40;9.35;;;3.53;;
71383;SDS011;67558;52.166;5.004;2023-02-05T03:17:05;5.00;;;3.20;;
71383;SDS011;67558;52.166;5.004;2023-02-05T03:19:31;4.55;;;3.85;;
71383;SDS011;67558;52.166;5.004;2023-02-05T03:22:01;5.93;;;3.45;;
71383;SDS011;67558;52.166;5.004;2023-02-05T03:24:29;6.97;;;3.35;;
71383;SDS011;67558;52.166;5.004;2023-02-05T03:26:56;8.40;;;3.65;;
71383;SDS011;67558;52.166;5.004;2023-02-05T03:29:25;4.93;;;3.38;;
71383;SDS011;67558;52.166;5.004;2023-02-05T03:37:17;3.65;;;2.90;;
71383;SDS011;67558;52.166;5.004;2023-02-05T03:42:58;6.00;;;2.63;;
71383;SDS011;67558;52.166;5.004;2023-02-05T03:45:58;6.07;;;3.10;;
71383;SDS011;67558;52.166;5.004;2023-02-05T03:48:44;3.60;;;2.90;;
71383;SDS011;67558;52.166;5.004;2023-02-05T03:53:53;3.08;;;2.40;;
71383;SDS011;67558;52.166;5.004;2023-02-05T03:58:56;2.22;;;1.60;;
71383;SDS011;67558;52.166;5.004;2023-02-05T04:01:22;11.70;;;2.97;;
71383;SDS011;67558;52.166;5.004;2023-02-05T04:03:49;6.97;;;2.97;;
71383;SDS011;67558;52.166;5.004;2023-02-05T04:06:14;3.08;;;2.70;;
71383;SDS011;67558;52.166;5.004;2023-02-05T04:08:40;5.30;;;3.35;;
71383;SDS011;67558;52.166;5.004;2023-02-05T04:11:08;3.80;;;1.90;;
71383;SDS011;67558;52.166;5.004;2023-02-05T04:13:34;6.35;;;3.53;;
71383;SDS011;67558;52.166;5.004;2023-02-05T04:15:59;6.18;;;2.65;;
71383;SDS011;67558;52.166;5.004;2023-02-05T04:18:25;6.53;;;3.58;;
71383;SDS011;67558;52.166;5.004;2023-02-05T04:20:50;5.15;;;3.45;;
71383;SDS011;67558;52.166;5.004;2023-02-05T04:23:15;3.97;;;3.03;;
71383;SDS011;67558;52.166;5.004;2023-02-05T04:25:41;5.20;;;2.97;;
71383;SDS011;67558;52.166;5.004;2023-02-05T04:28:06;6.97;;;3.35;;
71383;SDS011;67558;52.166;5.004;2023-02-05T04:30:33;5.38;;;2.90;;
71383;SDS011;67558;52.166;5.004;2023-02-05T04:32:58;10.88;;;4.68;;
71383;SDS011;67558;52.166;5.004;2023-02-05T04:35:23;4.07;;;2.90;;
71383;SDS011;67558;52.166;5.004;2023-02-05T04:37:49;6.05;;;3.42;;
71383;SDS011;67558;52.166;5.004;2023-02-05T04:40:14;5.47;;;3.85;;
71383;SDS011;67558;52.166;5.004;2023-02-05T04:42:40;6.30;;;3.25;;
71383;SDS011;67558;52.166;5.004;2023-02-05T04:45:05;7.45;;;3.97;;
71383;SDS011;67558;52.166;5.004;2023-02-05T04:47:31;6.05;;;2.97;;
71383;SDS011;67558;52.166;5.004;2023-02-05T04:49:57;6.07;;;3.80;;
71383;SDS011;67558;52.166;5.004;2023-02-05T04:52:23;2.65;;;2.17;;
71383;SDS011;67558;52.166;5.004;2023-02-05T04:54:48;4.22;;;2.30;;
71383;SDS011;67558;52.166;5.004;2023-02-05T04:57:14;4.05;;;2.72;;
71383;SDS011;67558;52.166;5.004;2023-02-05T04:59:39;4.28;;;2.53;;
71383;SDS011;67558;52.166;5.004;2023-02-05T05:02:05;2.97;;;2.33;;
71383;SDS011;67558;52.166;5.004;2023-02-05T05:04:30;3.72;;;1.92;;
71383;SDS011;67558;52.166;5.004;2023-02-05T05:06:56;2.05;;;1.85;;
71383;SDS011;67558;52.166;5.004;2023-02-05T05:09:21;3.95;;;2.45;;
71383;SDS011;67558;52.166;5.004;2023-02-05T05:11:49;1.55;;;1.45;;
71383;SDS011;67558;52.166;5.004;2023-02-05T05:14:15;2.25;;;1.77;;
71383;SDS011;67558;52.166;5.004;2023-02-05T05:16:40;4.70;;;2.25;;
71383;SDS011;67558;52.166;5.004;2023-02-05T05:19:06;3.50;;;2.05;;
71383;SDS011;67558;52.166;5.004;2023-02-05T05:21:31;1.38;;;1.27;;
71383;SDS011;67558;52.166;5.004;2023-02-05T05:23:56;5.68;;;1.90;;
71383;SDS011;67558;52.166;5.004;2023-02-05T05:26:22;1.45;;;1.35;;
71383;SDS011;67558;52.166;5.004;2023-02-05T05:28:51;3.13;;;1.35;;
71383;SDS011;67558;52.166;5.004;2023-02-05T05:31:17;5.82;;;2.25;;
71383;SDS011;67558;52.166;5.004;2023-02-05T05:33:45;7.90;;;2.10;;
71383;SDS011;67558;52.166;5.004;2023-02-05T05:36:11;2.15;;;1.58;;
71383;SDS011;67558;52.166;5.004;2023-02-05T05:38:37;2.08;;;1.20;;
71383;SDS011;67558;52.166;5.004;2023-02-05T05:41:03;3.13;;;1.35;;
71383;SDS011;67558;52.166;5.004;2023-02-05T05:43:47;4.63;;;1.40;;
71383;SDS011;67558;52.166;5.004;2023-02-05T05:46:17;10.38;;;1.98;;
71383;SDS011;67558;52.166;5.004;2023-02-05T05:48:47;5.22;;;2.05;;
71383;SDS011;67558;52.166;5.004;2023-02-05T05:51:17;1.95;;;1.70;;
71383;SDS011;67558;52.166;5.004;2023-02-05T05:53:43;2.95;;;1.58;;
71383;SDS011;67558;52.166;5.004;2023-02-05T05:56:09;3.13;;;1.83;;
71383;SDS011;67558;52.166;5.004;2023-02-05T05:58:35;2.38;;;1.70;;
71383;SDS011;67558;52.166;5.004;2023-02-05T06:01:00;3.50;;;1.50;;
71383;SDS011;67558;52.166;5.004;2023-02-05T06:03:26;3.92;;;1.30;;
71383;SDS011;67558;52.166;5.004;2023-02-05T06:05:51;2.15;;;1.50;;
71383;SDS011;67558;52.166;5.004;2023-02-05T06:08:16;1.17;;;1.08;;
71383;SDS011;67558;52.166;5.004;2023-02-05T06:10:42;5.22;;;1.67;;
71383;SDS011;67558;52.166;5.004;2023-02-05T06:13:07;4.18;;;2.17;;
71383;SDS011;67558;52.166;5.004;2023-02-05T06:15:33;4.50;;;1.55;;
71383;SDS011;67558;52.166;5.004;2023-02-05T06:17:59;7.28;;;2.35;;
71383;SDS011;67558;52.166;5.004;2023-02-05T06:20:24;1.85;;;1.17;;
71383;SDS011;67558;52.166;5.004;2023-02-05T06:22:49;3.67;;;2.22;;
71383;SDS011;67558;52.166;5.004;2023-02-05T06:25:15;2.90;;;1.85;;
71383;SDS011;67558;52.166;5.004;2023-02-05T06:27:40;2.83;;;1.52;;
71383;SDS011;67558;52.166;5.004;2023-02-05T06:30:06;2.10;;;1.50;;
71383;SDS011;67558;52.166;5.004;2023-02-05T06:32:32;4.20;;;1.40;;
71383;SDS011;67558;52.166;5.004;2023-02-05T06:34:58;6.30;;;2.00;;
71383;SDS011;67558;52.166;5.004;2023-02-05T06:37:23;4.57;;;3.85;;
71383;SDS011;67558;52.166;5.004;2023-02-05T06:39:53;3.33;;;2.47;;
71383;SDS011;67558;52.166;5.004;2023-02-05T06:42:18;9.63;;;2.38;;
71383;SDS011;67558;52.166;5.004;2023-02-05T06:44:44;3.00;;;1.23;;
71383;SDS011;67558;52.166;5.004;2023-02-05T06:47:09;5.35;;;1.90;;
71383;SDS011;67558;52.166;5.004;2023-02-05T06:49:35;1.88;;;1.40;;
71383;SDS011;67558;52.166;5.004;2023-02-05T06:52:00;6.22;;;2.45;;
71383;SDS011;67558;52.166;5.004;2023-02-05T06:54:26;2.85;;;1.27;;
71383;SDS011;67558;52.166;5.004;2023-02-05T06:56:51;3.00;;;1.35;;
71383;SDS011;67558;52.166;5.004;2023-02-05T06:59:16;5.57;;;1.83;;
71383;SDS011;67558;52.166;5.004;2023-02-05T07:01:42;3.72;;;1.77;;
71383;SDS011;67558;52.166;5.004;2023-02-05T07:04:07;3.97;;;1.35;;
71383;SDS011;67558;52.166;5.004;2023-02-05T07:06:33;8.13;;;2.58;;
71383;SDS011;67558;52.166;5.004;2023-02-05T07:08:58;2.05;;;1.58;;
71383;SDS011;67558;52.166;5.004;2023-02-05T07:11:24;1.10;;;1.00;;
71383;SDS011;67558;52.166;5.004;2023-02-05T07:13:50;2.03;;;1.27;;
71383;SDS011;67558;52.166;5.004;2023-02-05T07:16:15;10.65;;;2.25;;
71383;SDS011;67558;52.166;5.004;2023-02-05T07:18:41;3.25;;;1.05;;
71383;SDS011;67558;52.166;5.004;2023-02-05T07:21:07;6.90;;;2.40;;
71383;SDS011;67558;52.166;5.004;2023-02-05T07:23:41;1.85;;;1.50;;
71383;SDS011;67558;52.166;5.004;2023-02-05T07:26:07;3.00;;;1.65;;
71383;SDS011;67558;52.166;5.004;2023-02-05T07:28:34;3.22;;;1.83;;
71383;SDS011;67558;52.166;5.004;2023-02-05T07:31:03;5.05;;;2.10;;
71383;SDS011;67558;52.166;5.004;2023-02-05T07:33:30;1.80;;;1.25;;
71383;SDS011;67558;52.166;5.004;2023-02-05T07:35:56;1.50;;;1.40;;
71383;SDS011;67558;52.166;5.004;2023-02-05T07:38:22;2.13;;;1.73;;
71383;SDS011;67558;52.166;5.004;2023-02-05T07:40:49;1.38;;;1.10;;
71383;SDS011;67558;52.166;5.004;2023-02-05T07:43:15;1.25;;;1.10;;
71383;SDS011;67558;52.166;5.004;2023-02-05T07:45:40;2.90;;;1.42;;
71383;SDS011;67558;52.166;5.004;2023-02-05T07:48:05;2.60;;;1.38;;
71383;SDS011;67558;52.166;5.004;2023-02-05T07:50:31;5.65;;;1.88;;
71383;SDS011;67558;52.166;5.004;2023-02-05T07:52:56;3.72;;;1.40;;
71383;SDS011;67558;52.166;5.004;2023-02-05T07:55:21;3.08;;;1.75;;
71383;SDS011;67558;52.166;5.004;2023-02-05T07:57:47;6.00;;;3.03;;
71383;SDS011;67558;52.166;5.004;2023-02-05T08:00:12;3.83;;;1.55;;
71383;SDS011;67558;52.166;5.004;2023-02-05T08:02:38;2.22;;;1.55;;
71383;SDS011;67558;52.166;5.004;2023-02-05T08:05:03;4.03;;;1.85;;
71383;SDS011;67558;52.166;5.004;2023-02-05T08:07:29;3.80;;;2.05;;
71383;SDS011;67558;52.166;5.004;2023-02-05T08:09:54;6.07;;;2.25;;
71383;SDS011;67558;52.166;5.004;2023-02-05T08:12:20;8.13;;;2.00;;
71383;SDS011;67558;52.166;5.004;2023-02-05T08:14:45;10.82;;;2.17;;
71383;SDS011;67558;52.166;5.004;2023-02-05T08:17:10;4.55;;;1.67;;
71383;SDS011;67558;52.166;5.004;2023-02-05T08:19:36;13.38;;;3.17;;
71383;SDS011;67558;52.166;5.004;2023-02-05T08:22:01;8.43;;;2.30;;
71383;SDS011;67558;52.166;5.004;2023-02-05T08:24:27;4.82;;;2.17;;
71383;SDS011;67558;52.166;5.004;2023-02-05T08:26:52;2.78;;;1.60;;
71383;SDS011;67558;52.166;5.004;2023-02-05T08:29:18;5.50;;;1.50;;
71383;SDS011;67558;52.166;5.004;2023-02-05T08:31:43;5.93;;;1.85;;
71383;SDS011;67558;52.166;5.004;2023-02-05T08:34:08;6.70;;;2.35;;
71383;SDS011;67558;52.166;5.004;2023-02-05T08:36:34;2.38;;;1.80;;
71383;SDS011;67558;52.166;5.004;2023-02-05T08:38:59;3.17;;;1.98;;
71383;SDS011;67558;52.166;5.004;2023-02-05T08:41:24;7.57;;;2.28;;
71383;SDS011;67558;52.166;5.004;2023-02-05T08:43:50;11.70;;;2.55;;
71383;SDS011;67558;52.166;5.004;2023-02-05T08:46:17;4.35;;;1.50;;
71383;SDS011;67558;52.166;5.004;2023-02-05T08:48:44;10.07;;;2.25;;
71383;SDS011;67558;52.166;5.004;2023-02-05T08:51:10;7.18;;;2.08;;
71383;SDS011;67558;52.166;5.004;2023-02-05T08:53:36;8.10;;;2.13;;
71383;SDS011;67558;52.166;5.004;2023-02-05T08:56:02;5.28;;;2.45;;
71383;SDS011;67558;52.166;5.004;2023-02-05T08:58:29;16.50;;;2.70;;
71383;SDS011;67558;52.166;5.004;2023-02-05T09:01:01;8.80;;;3.28;;
71383;SDS011;67558;52.166;5.004;2023-02-05T09:03:29;12.50;;;2.45;;
71383;SDS011;67558;52.166;5.004;2023-02-05T09:05:55;8.63;;;3.10;;
71383;SDS011;67558;52.166;5.004;2023-02-05T09:08:21;4.90;;;2.47;;
71383;SDS011;67558;52.166;5.004;2023-02-05T09:10:47;7.43;;;2.67;;
71383;SDS011;67558;52.166;5.004;2023-02-05T09:13:12;6.03;;;2.20;;
71383;SDS011;67558;52.166;5.004;2023-02-05T09:15:44;9.75;;;2.92;;
71383;SDS011;67558;52.166;5.004;2023-02-05T09:18:11;12.57;;;2.30;;
71383;SDS011;67558;52.166;5.004;2023-02-05T09:20:43;9.45;;;2.78;;
71383;SDS011;67558;52.166;5.004;2023-02-05T09:23:11;6.95;;;1.80;;
71383;SDS011;67558;52.166;5.004;2023-02-05T09:25:38;7.10;;;2.17;;
71383;SDS011;67558;52.166;5.004;2023-02-05T09:28:04;8.02;;;2.78;;
71383;SDS011;67558;52.166;5.004;2023-02-05T09:30:33;8.55;;;3.05;;
71383;SDS011;67558;52.166;5.004;2023-02-05T09:33:03;4.78;;;1.77;;
71383;SDS011;67558;52.166;5.004;2023-02-05T09:35:30;12.10;;;4.47;;
71383;SDS011;67558;52.166;5.004;2023-02-05T09:37:56;10.00;;;3.28;;
71383;SDS011;67558;52.166;5.004;2023-02-05T09:40:22;6.53;;;2.63;;
71383;SDS011;67558;52.166;5.004;2023-02-05T09:51:03;7.72;;;2.50;;
71383;SDS011;67558;52.166;5.004;2023-02-05T09:53:34;3.55;;;2.45;;
71383;SDS011;67558;52.166;5.004;2023-02-05T09:56:03;6.18;;;2.88;;
71383;SDS011;67558;52.166;5.004;2023-02-05T09:58:31;7.32;;;2.55;;
71383;SDS011;67558;52.166;5.004;2023-02-05T10:01:19;9.38;;;2.92;;
71383;SDS011;67558;52.166;5.004;2023-02-05T10:03:48;8.65;;;2.13;;
71383;SDS011;67558;52.166;5.004;2023-02-05T10:17:44;6.88;;;2.47;;
71383;SDS011;67558;52.166;5.004;2023-02-05T10:25:45;9.68;;;2.45;;
71383;SDS011;67558;52.166;5.004;2023-02-05T10:31:33;15.35;;;3.20;;
71383;SDS011;67558;52.166;5.004;2023-02-05T10:39:12;4.72;;;2.15;;
71383;SDS011;67558;52.166;5.004;2023-02-05T10:41:48;6.80;;;2.72;;
71383;SDS011;67558;52.166;5.004;2023-02-05T10:44:22;7.57;;;2.40;;
71383;SDS011;67558;52.166;5.004;2023-02-05T10:47:23;10.15;;;3.25;;
71383;SDS011;67558;52.166;5.004;2023-02-05T10:50:27;8.77;;;1.70;;
71383;SDS011;67558;52.166;5.004;2023-02-05T10:53:04;11.85;;;3.03;;
71383;SDS011;67558;52.166;5.004;2023-02-05T10:55:30;5.22;;;2.00;;
71383;SDS011;67558;52.166;5.004;2023-02-05T10:57:56;4.65;;;2.30;;
71383;SDS011;67558;52.166;5.004;2023-02-05T11:00:21;11.43;;;3.40;;
71383;SDS011;67558;52.166;5.004;2023-02-05T11:02:49;12.40;;;2.22;;
71383;SDS011;67558;52.166;5.004;2023-02-05T11:07:48;4.82;;;2.58;;
71383;SDS011;67558;52.166;5.004;2023-02-05T11:12:43;6.95;;;2.22;;
71383;SDS011;67558;52.166;5.004;2023-02-05T11:18:23;7.65;;;3.15;;
71383;SDS011;67558;52.166;5.004;2023-02-05T11:21:10;5.03;;;2.40;;
71383;SDS011;67558;52.166;5.004;2023-02-05T11:23:36;6.72;;;2.58;;
71383;SDS011;67558;52.166;5.004;2023-02-05T11:26:25;2.47;;;2.05;;
71383;SDS011;67558;52.166;5.004;2023-02-05T11:28:54;5.85;;;1.85;;
71383;SDS011;67558;52.166;5.004;2023-02-05T11:34:10;4.05;;;1.90;;
71383;SDS011;67558;52.166;5.004;2023-02-05T11:36:50;6.82;;;2.40;;
71383;SDS011;67558;52.166;5.004;2023-02-05T11:42:06;8.43;;;2.42;;
71383;SDS011;67558;52.166;5.004;2023-02-05T11:44:53;6.18;;;2.25;;
71383;SDS011;67558;52.166;5.004;2023-02-05T11:47:40;14.32;;;2.65;;
71383;SDS011;67558;52.166;5.004;2023-02-05T11:50:16;6.65;;;2.20;;
71383;SDS011;67558;52.166;5.004;2023-02-05T11:52:47;6.00;;;2.42;;
71383;SDS011;67558;52.166;5.004;2023-02-05T11:55:32;8.10;;;2.30;;
71383;SDS011;67558;52.166;5.004;2023-02-05T11:58:00;7.82;;;2.75;;
71383;SDS011;67558;52.166;5.004;2023-02-05T12:00:28;4.20;;;1.98;;
71383;SDS011;67558;52.166;5.004;2023-02-05T12:03:02;12.27;;;3.17;;
71383;SDS011;67558;52.166;5.004;2023-02-05T12:05:34;5.25;;;1.92;;
71383;SDS011;67558;52.166;5.004;2023-02-05T12:08:17;10.20;;;2.53;;
71383;SDS011;67558;52.166;5.004;2023-02-05T12:13:44;6.75;;;2.20;;
71383;SDS011;67558;52.166;5.004;2023-02-05T12:19:21;6.60;;;2.22;;
71383;SDS011;67558;52.166;5.004;2023-02-05T12:21:54;8.18;;;2.80;;
71383;SDS011;67558;52.166;5.004;2023-02-05T12:41:29;6.50;;;1.50;;
71383;SDS011;67558;52.166;5.004;2023-02-05T12:44:06;8.82;;;2.75;;
71383;SDS011;67558;52.166;5.004;2023-02-05T12:54:42;9.10;;;2.38;;
71383;SDS011;67558;52.166;5.004;2023-02-05T12:57:10;10.25;;;2.78;;
71383;SDS011;67558;52.166;5.004;2023-02-05T12:59:46;5.22;;;2.00;;
71383;SDS011;67558;52.166;5.004;2023-02-05T13:02:28;5.43;;;2.78;;
71383;SDS011;67558;52.166;5.004;2023-02-05T13:07:47;4.93;;;2.03;;
71383;SDS011;67558;52.166;5.004;2023-02-05T13:10:23;7.35;;;2.97;;
71383;SDS011;67558;52.166;5.004;2023-02-05T13:12:53;4.15;;;2.60;;
71383;SDS011;67558;52.166;5.004;2023-02-05T13:15:34;4.57;;;2.17;;
71383;SDS011;67558;52.166;5.004;2023-02-05T13:18:06;7.47;;;2.50;;
71383;SDS011;67558;52.166;5.004;2023-02-05T13:20:40;5.93;;;1.85;;
71383;SDS011;67558;52.166;5.004;2023-02-05T13:23:27;9.85;;;2.60;;
71383;SDS011;67558;52.166;5.004;2023-02-05T13:26:14;8.65;;;2.10;;
71383;SDS011;67558;52.166;5.004;2023-02-05T13:29:04;4.70;;;1.98;;
71383;SDS011;67558;52.166;5.004;2023-02-05T13:31:36;6.20;;;2.15;;
71383;SDS011;67558;52.166;5.004;2023-02-05T13:34:07;9.38;;;2.20;;
71383;SDS011;67558;52.166;5.004;2023-02-05T13:59:18;11.50;;;2.92;;
71383;SDS011;67558;52.166;5.004;2023-02-05T14:01:55;10.25;;;3.47;;
71383;SDS011;67558;52.166;5.004;2023-02-05T14:06:57;7.43;;;2.27;;
71383;SDS011;67558;52.166;5.004;2023-02-05T14:09:31;4.57;;;3.10;;
71383;SDS011;67558;52.166;5.004;2023-02-05T14:12:02;11.15;;;3.05;;
71383;SDS011;67558;52.166;5.004;2023-02-05T14:17:51;7.13;;;2.47;;
71383;SDS011;67558;52.166;5.004;2023-02-05T14:22:48;7.80;;;3.08;;
71383;SDS011;67558;52.166;5.004;2023-02-05T14:30:54;6.53;;;2.28;;
71383;SDS011;67558;52.166;5.004;2023-02-05T14:33:30;9.18;;;2.22;;
71383;SDS011;67558;52.166;5.004;2023-02-05T14:38:52;7.03;;;2.50;;
71383;SDS011;67558;52.166;5.004;2023-02-05T14:41:26;10.70;;;3.33;;
71383;SDS011;67558;52.166;5.004;2023-02-05T14:46:32;1.90;;;1.48;;
71383;SDS011;67558;52.166;5.004;2023-02-05T14:49:04;12.70;;;2.55;;
71383;SDS011;67558;52.166;5.004;2023-02-05T14:51:37;6.07;;;2.60;;
71383;SDS011;67558;52.166;5.004;2023-02-05T14:54:27;5.32;;;2.65;;
71383;SDS011;67558;52.166;5.004;2023-02-05T14:57:06;7.68;;;2.55;;
71383;SDS011;67558;52.166;5.004;2023-02-05T15:05:39;8.57;;;2.53;;
71383;SDS011;67558;52.166;5.004;2023-02-05T15:11:16;12.65;;;3.30;;
71383;SDS011;67558;52.166;5.004;2023-02-05T15:14:23;6.35;;;2.83;;
71383;SDS011;67558;52.166;5.004;2023-02-05T15:19:28;14.35;;;2.72;;
71383;SDS011;67558;52.166;5.004;2023-02-05T15:21:57;11.05;;;2.80;;
71383;SDS011;67558;52.166;5.004;2023-02-05T15:24:23;10.73;;;2.53;;
71383;SDS011;67558;52.166;5.004;2023-02-05T15:29:26;9.20;;;2.90;;
71383;SDS011;67558;52.166;5.004;2023-02-05T15:31:57;9.35;;;3.45;;
71383;SDS011;67558;52.166;5.004;2023-02-05T15:37:37;12.30;;;2.50;;
71383;SDS011;67558;52.166;5.004;2023-02-05T15:40:18;12.88;;;2.10;;
71383;SDS011;67558;52.166;5.004;2023-02-05T15:43:14;7.47;;;2.58;;
71383;SDS011;67558;52.166;5.004;2023-02-05T15:45:44;18.58;;;4.07;;
71383;SDS011;67558;52.166;5.004;2023-02-05T15:53:01;5.37;;;1.70;;
71383;SDS011;67558;52.166;5.004;2023-02-05T15:55:28;16.15;;;3.03;;
71383;SDS011;67558;52.166;5.004;2023-02-05T15:57:56;14.55;;;3.13;;
71383;SDS011;67558;52.166;5.004;2023-02-05T16:00:26;7.38;;;3.25;;
71383;SDS011;67558;52.166;5.004;2023-02-05T16:02:54;7.28;;;2.38;;
71383;SDS011;67558;52.166;5.004;2023-02-05T16:05:22;7.85;;;2.80;;
71383;SDS011;67558;52.166;5.004;2023-02-05T16:07:49;8.80;;;3.63;;
71383;SDS011;67558;52.166;5.004;2023-02-05T16:10:29;9.10;;;3.22;;
71383;SDS011;67558;52.166;5.004;2023-02-05T16:13:03;8.60;;;2.00;;
71383;SDS011;67558;52.166;5.004;2023-02-05T16:16:04;12.88;;;3.22;;
71383;SDS011;67558;52.166;5.004;2023-02-05T16:18:45;2.95;;;1.83;;
71383;SDS011;67558;52.166;5.004;2023-02-05T16:21:22;10.15;;;2.60;;
71383;SDS011;67558;52.166;5.004;2023-02-05T16:23:58;14.88;;;2.45;;
71383;SDS011;67558;52.166;5.004;2023-02-05T16:26:38;9.70;;;2.00;;
71383;SDS011;67558;52.166;5.004;2023-02-05T16:29:12;16.27;;;2.80;;
71383;SDS011;67558;52.166;5.004;2023-02-05T16:31:43;6.70;;;2.45;;
71383;SDS011;67558;52.166;5.004;2023-02-05T16:34:16;10.02;;;3.03;;
71383;SDS011;67558;52.166;5.004;2023-02-05T16:36:46;3.50;;;2.90;;
71383;SDS011;67558;52.166;5.004;2023-02-05T16:42:00;9.35;;;3.45;;
71383;SDS011;67558;52.166;5.004;2023-02-05T16:44:32;5.75;;;2.25;;
71383;SDS011;67558;52.166;5.004;2023-02-05T16:47:04;8.18;;;2.45;;
71383;SDS011;67558;52.166;5.004;2023-02-05T16:49:40;13.48;;;2.80;;
71383;SDS011;67558;52.166;5.004;2023-02-05T16:57:49;14.18;;;2.83;;
71383;SDS011;67558;52.166;5.004;2023-02-05T17:02:59;10.35;;;3.30;;
71383;SDS011;67558;52.166;5.004;2023-02-05T17:05:32;7.32;;;2.63;;
71383;SDS011;67558;52.166;5.004;2023-02-05T17:08:00;7.35;;;2.03;;
71383;SDS011;67558;52.166;5.004;2023-02-05T17:10:31;4.70;;;2.80;;
71383;SDS011;67558;52.166;5.004;2023-02-05T17:13:24;10.45;;;2.50;;
71383;SDS011;67558;52.166;5.004;2023-02-05T17:15:52;26.00;;;4.40;;
71383;SDS011;67558;52.166;5.004;2023-02-05T17:18:19;9.48;;;2.80;;
71383;SDS011;67558;52.166;5.004;2023-02-05T17:20:47;22.52;;;3.10;;
71383;SDS011;67558;52.166;5.004;2023-02-05T17:23:13;15.10;;;3.50;;
71383;SDS011;67558;52.166;5.004;2023-02-05T17:28:06;14.13;;;3.70;;
71383;SDS011;67558;52.166;5.004;2023-02-05T17:33:08;15.70;;;3.05;;
71383;SDS011;67558;52.166;5.004;2023-02-05T17:35:40;8.70;;;2.55;;
71383;SDS011;67558;52.166;5.004;2023-02-05T17:38:06;12.77;;;3.30;;
71383;SDS011;67558;52.166;5.004;2023-02-05T17:40:31;7.53;;;2.90;;
71383;SDS011;67558;52.166;5.004;2023-02-05T17:42:57;11.10;;;3.72;;
71383;SDS011;67558;52.166;5.004;2023-02-05T17:45:24;9.02;;;2.78;;
71383;SDS011;67558;52.166;5.004;2023-02-05T17:47:52;7.07;;;2.75;;
71383;SDS011;67558;52.166;5.004;2023-02-05T17:50:20;17.15;;;4.32;;
71383;SDS011;67558;52.166;5.004;2023-02-05T17:52:45;8.15;;;3.05;;
71383;SDS011;67558;52.166;5.004;2023-02-05T17:55:15;13.60;;;3.47;;
71383;SDS011;67558;52.166;5.004;2023-02-05T17:57:42;10.05;;;2.50;;
71383;SDS011;67558;52.166;5.004;2023-02-05T18:00:12;25.35;;;3.53;;